Old London, Texas
Current Conditions -  °F | °C
As of 12:15 PM on Monday 22 Dec 2014 (Local Time) from KRFI Reporting Station
Broken Clouds Broken Clouds  
Wind Chill: 67°   Ceiling: 3500
Heat Index: 67°   Visibility: 10mi
Dew Point: 54°   Wind: 13mph
Humidity: 63%   Direction: 220°SW
Pressure: 29.6"   Gusts: 20mph
Location:  32.2538°N, 94.9427°W
Report Text: KRFI 221815Z AUTO 22011G17KT 180V240 10SM SCT026 BKN035 19/12 A2960 RMK AO2 T01920121
Loading
Personal Weather Stations






























Interactive Weather Map New forecast layout! Learn more

10-Day Weather Forecast

Advertisements
Track Severe Weather on mobile